sensor_id;sensor_type;location;lat;lon;timestamp;pressure;altitude;pressure_sealevel;temperature;humidity
63881;BME280;50046;46.672;11.152;2022-08-04T00:00:11;98223.94;;;23.00;62.47
63881;BME280;50046;46.672;11.152;2022-08-04T00:00:24;98225.88;;;22.99;62.41
63881;BME280;50046;46.672;11.152;2022-08-04T00:00:41;98222.34;;;22.99;62.19
63881;BME280;50046;46.672;11.152;2022-08-04T00:01:07;98223.94;;;23.00;62.37
63881;BME280;50046;46.672;11.152;2022-08-04T00:01:27;98224.72;;;23.00;62.68
63881;BME280;50046;46.672;11.152;2022-08-04T00:02:00;98227.84;;;22.99;62.96
63881;BME280;50046;46.672;11.152;2022-08-04T00:02:17;98226.22;;;22.98;62.94
63881;BME280;50046;46.672;11.152;2022-08-04T00:03:18;98224.63;;;22.97;63.41
63881;BME280;50046;46.672;11.152;2022-08-04T00:03:42;98222.53;;;22.94;63.56
63881;BME280;50046;46.672;11.152;2022-08-04T00:04:02;98220.44;;;22.91;63.83
63881;BME280;50046;46.672;11.152;2022-08-04T00:04:59;98233.38;;;22.90;64.08
63881;BME280;50046;46.672;11.152;2022-08-04T00:05:29;98225.97;;;22.91;64.30
63881;BME280;50046;46.672;11.152;2022-08-04T00:06:16;98227.56;;;22.92;63.95
63881;BME280;50046;46.672;11.152;2022-08-04T00:06:38;98233.84;;;22.92;64.38
63881;BME280;50046;46.672;11.152;2022-08-04T00:07:15;98218.13;;;22.93;64.48
63881;BME280;50046;46.672;11.152;2022-08-04T00:08:44;98229.56;;;22.83;64.73
63881;BME280;50046;46.672;11.152;2022-08-04T00:09:02;98228.31;;;22.80;65.02
63881;BME280;50046;46.672;11.152;2022-08-04T00:09:51;98235.44;;;22.81;64.91
63881;BME280;50046;46.672;11.152;2022-08-04T00:10:06;98225.34;;;22.85;64.47
63881;BME280;50046;46.672;11.152;2022-08-04T00:10:17;98228.44;;;22.84;64.39
63881;BME280;50046;46.672;11.152;2022-08-04T00:10:31;98236.72;;;22.84;64.26
63881;BME280;50046;46.672;11.152;2022-08-04T00:10:53;98231.22;;;22.84;64.48
63881;BME280;50046;46.672;11.152;2022-08-04T00:11:07;98231.22;;;22.84;64.72
63881;BME280;50046;46.672;11.152;2022-08-04T00:11:22;98230.72;;;22.82;64.53
63881;BME280;50046;46.672;11.152;2022-08-04T00:11:35;98234.66;;;22.81;64.95
63881;BME280;50046;46.672;11.152;2022-08-04T00:11:53;98225.56;;;22.80;64.80
63881;BME280;50046;46.672;11.152;2022-08-04T00:12:10;98231.75;;;22.77;64.85
63881;BME280;50046;46.672;11.152;2022-08-04T00:12:24;98231.41;;;22.78;65.14
63881;BME280;50046;46.672;11.152;2022-08-04T00:12:43;98233.00;;;22.79;65.06
63881;BME280;50046;46.672;11.152;2022-08-04T00:12:57;98233.47;;;22.82;64.85
63881;BME280;50046;46.672;11.152;2022-08-04T00:13:10;98232.69;;;22.81;65.11
63881;BME280;50046;46.672;11.152;2022-08-04T00:13:24;98233.47;;;22.82;64.89
63881;BME280;50046;46.672;11.152;2022-08-04T00:13:42;98235.44;;;22.81;64.92
63881;BME280;50046;46.672;11.152;2022-08-04T00:14:03;98233.47;;;22.82;64.56
63881;BME280;50046;46.672;11.152;2022-08-04T00:14:15;98236.25;;;22.82;65.02
63881;BME280;50046;46.672;11.152;2022-08-04T00:14:34;98239.00;;;22.82;64.73
63881;BME280;50046;46.672;11.152;2022-08-04T00:14:49;98234.66;;;22.81;64.44
63881;BME280;50046;46.672;11.152;2022-08-04T00:15:03;98236.13;;;22.78;64.60
63881;BME280;50046;46.672;11.152;2022-08-04T00:15:16;98228.66;;;22.78;64.66
63881;BME280;50046;46.672;11.152;2022-08-04T00:15:28;98231.41;;;22.78;64.61
63881;BME280;50046;46.672;11.152;2022-08-04T00:15:39;98228.66;;;22.78;64.52
63881;BME280;50046;46.672;11.152;2022-08-04T00:15:52;98236.94;;;22.78;64.30
63881;BME280;50046;46.672;11.152;2022-08-04T00:16:05;98234.50;;;22.77;64.35
63881;BME280;50046;46.672;11.152;2022-08-04T00:16:21;98237.72;;;22.79;64.37
63881;BME280;50046;46.672;11.152;2022-08-04T00:16:35;98229.47;;;22.79;64.51
63881;BME280;50046;46.672;11.152;2022-08-04T00:16:48;98235.75;;;22.79;64.37
63881;BME280;50046;46.672;11.152;2022-08-04T00:17:05;98234.97;;;22.79;64.51
63881;BME280;50046;46.672;11.152;2022-08-04T00:17:20;98234.97;;;22.79;64.46
63881;BME280;50046;46.672;11.152;2022-08-04T00:17:59;98239.19;;;22.76;64.78
63881;BME280;50046;46.672;11.152;2022-08-04T00:18:14;98233.22;;;22.74;64.54
63881;BME280;50046;46.672;11.152;2022-08-04T00:18:39;98237.13;;;22.73;64.68
63881;BME280;50046;46.672;11.152;2022-08-04T00:18:56;98235.50;;;22.72;64.70
63881;BME280;50046;46.672;11.152;2022-08-04T00:19:19;98239.09;;;22.73;64.54
63881;BME280;50046;46.672;11.152;2022-08-04T00:19:40;98235.19;;;22.74;64.50
63881;BME280;50046;46.672;11.152;2022-08-04T00:19:59;98232.44;;;22.74;64.55
63881;BME280;50046;46.672;11.152;2022-08-04T00:20:11;98227.72;;;22.74;64.61
63881;BME280;50046;46.672;11.152;2022-08-04T00:20:30;98235.19;;;22.74;64.83
63881;BME280;50046;46.672;11.152;2022-08-04T00:20:44;98232.91;;;22.76;64.80
63881;BME280;50046;46.672;11.152;2022-08-04T00:21:03;98235.28;;;22.77;64.81
63881;BME280;50046;46.672;11.152;2022-08-04T00:21:18;98235.66;;;22.76;64.66
63881;BME280;50046;46.672;11.152;2022-08-04T00:21:36;98233.69;;;22.76;64.47
63881;BME280;50046;46.672;11.152;2022-08-04T00:21:55;98237.25;;;22.77;64.92
63881;BME280;50046;46.672;11.152;2022-08-04T00:22:09;98232.53;;;22.77;64.78
63881;BME280;50046;46.672;11.152;2022-08-04T00:22:28;98234.16;;;22.78;64.92
63881;BME280;50046;46.672;11.152;2022-08-04T00:22:39;98238.53;;;22.79;64.83
63881;BME280;50046;46.672;11.152;2022-08-04T00:22:52;98238.19;;;22.81;64.67
63881;BME280;50046;46.672;11.152;2022-08-04T00:23:07;98239.00;;;22.82;64.83
63881;BME280;50046;46.672;11.152;2022-08-04T00:23:18;98234.66;;;22.81;64.84
63881;BME280;50046;46.672;11.152;2022-08-04T00:23:35;98235.44;;;22.81;64.56
63881;BME280;50046;46.672;11.152;2022-08-04T00:23:51;98234.28;;;22.82;64.54
63881;BME280;50046;46.672;11.152;2022-08-04T00:24:05;98235.09;;;22.83;64.51
63881;BME280;50046;46.672;11.152;2022-08-04T00:24:17;98238.19;;;22.81;64.46
63881;BME280;50046;46.672;11.152;2022-08-04T00:24:30;98237.03;;;22.82;64.36
63881;BME280;50046;46.672;11.152;2022-08-04T00:24:43;98235.91;;;22.83;64.56
63881;BME280;50046;46.672;11.152;2022-08-04T00:24:55;98231.53;;;22.82;64.67
63881;BME280;50046;46.672;11.152;2022-08-04T00:25:08;98233.47;;;22.82;64.51
63881;BME280;50046;46.672;11.152;2022-08-04T00:25:19;98232.34;;;22.83;64.38
63881;BME280;50046;46.672;11.152;2022-08-04T00:25:30;98244.16;;;22.83;64.20
63881;BME280;50046;46.672;11.152;2022-08-04T00:25:41;98235.09;;;22.83;64.89
63881;BME280;50046;46.672;11.152;2022-08-04T00:25:54;98237.03;;;22.82;64.89
63881;BME280;50046;46.672;11.152;2022-08-04T00:26:04;98232.69;;;22.81;64.85
63881;BME280;50046;46.672;11.152;2022-08-04T00:26:20;98233.47;;;22.82;64.68
63881;BME280;50046;46.672;11.152;2022-08-04T00:26:32;98235.09;;;22.83;64.76
63881;BME280;50046;46.672;11.152;2022-08-04T00:26:45;98238.19;;;22.81;64.77
63881;BME280;50046;46.672;11.152;2022-08-04T00:26:56;98236.94;;;22.78;65.18
63881;BME280;50046;46.672;11.152;2022-08-04T00:27:10;98234.97;;;22.79;65.23
63881;BME280;50046;46.672;11.152;2022-08-04T00:27:22;98238.53;;;22.79;65.00
63881;BME280;50046;46.672;11.152;2022-08-04T00:27:33;98239.31;;;22.80;65.32
63881;BME280;50046;46.672;11.152;2022-08-04T00:27:45;98235.75;;;22.79;65.27
63881;BME280;50046;46.672;11.152;2022-08-04T00:27:59;98241.28;;;22.79;65.66
63881;BME280;50046;46.672;11.152;2022-08-04T00:28:12;98236.56;;;22.80;65.13
63881;BME280;50046;46.672;11.152;2022-08-04T00:28:23;98237.41;;;22.81;65.17
63881;BME280;50046;46.672;11.152;2022-08-04T00:28:36;98234.66;;;22.81;65.36
63881;BME280;50046;46.672;11.152;2022-08-04T00:28:47;98244.03;;;22.79;65.40
63881;BME280;50046;46.672;11.152;2022-08-04T00:28:59;98238.53;;;22.79;65.20
63881;BME280;50046;46.672;11.152;2022-08-04T00:29:11;98242.91;;;22.81;65.18
63881;BME280;50046;46.672;11.152;2022-08-04T00:29:22;98234.16;;;22.78;65.37
63881;BME280;50046;46.672;11.152;2022-08-04T00:29:34;98239.69;;;22.78;65.43
63881;BME280;50046;46.672;11.152;2022-08-04T00:29:47;98242.44;;;22.78;65.52
63881;BME280;50046;46.672;11.152;2022-08-04T00:29:59;98239.69;;;22.78;65.26
63881;BME280;50046;46.672;11.152;2022-08-04T00:30:17;98236.94;;;22.78;65.52
63881;BME280;50046;46.672;11.152;2022-08-04T00:30:29;98243.56;;;22.77;65.53
63881;BME280;50046;46.672;11.152;2022-08-04T00:30:41;98237.94;;;22.74;65.08
63881;BME280;50046;46.672;11.152;2022-08-04T00:30:54;98244.91;;;22.71;65.37
63881;BME280;50046;46.672;11.152;2022-08-04T00:31:09;98241.69;;;22.69;65.22
63881;BME280;50046;46.672;11.152;2022-08-04T00:31:21;98233.78;;;22.68;65.34
63881;BME280;50046;46.672;11.152;2022-08-04T00:31:32;98240.41;;;22.67;65.46
63881;BME280;50046;46.672;11.152;2022-08-04T00:31:46;98241.09;;;22.64;65.45
63881;BME280;50046;46.672;11.152;2022-08-04T00:31:58;98241.44;;;22.62;65.29
63881;BME280;50046;46.672;11.152;2022-08-04T00:32:11;98239.81;;;22.61;65.22
63881;BME280;50046;46.672;11.152;2022-08-04T00:32:25;98234.81;;;22.63;65.38
63881;BME280;50046;46.672;11.152;2022-08-04T00:32:40;98242.69;;;22.65;65.33
63881;BME280;50046;46.672;11.152;2022-08-04T00:32:51;98236.41;;;22.64;65.05
63881;BME280;50046;46.672;11.152;2022-08-04T00:33:02;98230.56;;;22.66;65.03
63881;BME280;50046;46.672;11.152;2022-08-04T00:33:20;98239.63;;;22.66;65.10
63881;BME280;50046;46.672;11.152;2022-08-04T00:33:33;98242.38;;;22.66;65.10
63881;BME280;50046;46.672;11.152;2022-08-04T00:33:45;98242.38;;;22.66;65.11
63881;BME280;50046;46.672;11.152;2022-08-04T00:33:56;98235.72;;;22.67;64.89
63881;BME280;50046;46.672;11.152;2022-08-04T00:34:11;98239.28;;;22.68;65.18
63881;BME280;50046;46.672;11.152;2022-08-04T00:34:31;98241.22;;;22.67;65.16
63881;BME280;50046;46.672;11.152;2022-08-04T00:34:47;98240.09;;;22.68;65.20
63881;BME280;50046;46.672;11.152;2022-08-04T00:35:01;98240.41;;;22.67;65.39
63881;BME280;50046;46.672;11.152;2022-08-04T00:35:19;98241.56;;;22.66;65.07
63881;BME280;50046;46.672;11.152;2022-08-04T00:35:30;98243.66;;;22.69;65.31
63881;BME280;50046;46.672;11.152;2022-08-04T00:35:43;98240.09;;;22.68;64.98
63881;BME280;50046;46.672;11.152;2022-08-04T00:35:56;98235.28;;;22.65;65.25
63881;BME280;50046;46.672;11.152;2022-08-04T00:36:11;98241.56;;;22.66;65.42
63881;BME280;50046;46.672;11.152;2022-08-04T00:36:25;98240.78;;;22.65;65.10
63881;BME280;50046;46.672;11.152;2022-08-04T00:36:36;98238.34;;;22.64;65.19
63881;BME280;50046;46.672;11.152;2022-08-04T00:36:47;98240.31;;;22.63;65.33
63881;BME280;50046;46.672;11.152;2022-08-04T00:36:58;98245.00;;;22.63;65.54
63881;BME280;50046;46.672;11.152;2022-08-04T00:37:09;98239.81;;;22.61;65.58
63881;BME280;50046;46.672;11.152;2022-08-04T00:37:21;98240.97;;;22.60;65.42
63881;BME280;50046;46.672;11.152;2022-08-04T00:37:32;98239.03;;;22.61;65.30
63881;BME280;50046;46.672;11.152;2022-08-04T00:37:44;98240.50;;;22.58;65.45
63881;BME280;50046;46.672;11.152;2022-08-04T00:37:55;98243.72;;;22.60;65.49
63881;BME280;50046;46.672;11.152;2022-08-04T00:38:07;98242.59;;;22.61;65.65
63881;BME280;50046;46.672;11.152;2022-08-04T00:38:18;98240.63;;;22.62;65.59
63881;BME280;50046;46.672;11.152;2022-08-04T00:38:33;98241.44;;;22.62;65.86
63881;BME280;50046;46.672;11.152;2022-08-04T00:38:44;98243.38;;;22.62;65.66
63881;BME280;50046;46.672;11.152;2022-08-04T00:38:55;98240.97;;;22.60;65.66
63881;BME280;50046;46.672;11.152;2022-08-04T00:39:12;98241.44;;;22.62;65.38
63881;BME280;50046;46.672;11.152;2022-08-04T00:39:26;98245.34;;;22.61;65.54
63881;BME280;50046;46.672;11.152;2022-08-04T00:39:39;98242.91;;;22.60;65.73
63881;BME280;50046;46.672;11.152;2022-08-04T00:39:54;98249.25;;;22.60;65.74
63881;BME280;50046;46.672;11.152;2022-08-04T00:40:47;98246.00;;;22.58;65.96
63881;BME280;50046;46.672;11.152;2022-08-04T00:41:17;98244.38;;;22.57;65.98
63881;BME280;50046;46.672;11.152;2022-08-04T00:42:33;98248.75;;;22.58;66.27
63881;BME280;50046;46.672;11.152;2022-08-04T00:42:50;98242.50;;;22.49;65.71
63881;BME280;50046;46.672;11.152;2022-08-04T00:43:28;98247.91;;;22.45;66.24
63881;BME280;50046;46.672;11.152;2022-08-04T00:44:29;98253.59;;;22.40;65.74
63881;BME280;50046;46.672;11.152;2022-08-04T00:46:52;98253.69;;;22.52;65.68
63881;BME280;50046;46.672;11.152;2022-08-04T00:51:10;98253.78;;;22.56;65.92
63881;BME280;50046;46.672;11.152;2022-08-04T00:51:29;98251.72;;;22.53;65.93
63881;BME280;50046;46.672;11.152;2022-08-04T00:52:03;98252.03;;;22.51;65.88
63881;BME280;50046;46.672;11.152;2022-08-04T00:52:55;98255.47;;;22.48;65.03
63881;BME280;50046;46.672;11.152;2022-08-04T00:53:18;98254.31;;;22.49;64.84
63881;BME280;50046;46.672;11.152;2022-08-04T00:54:09;98254.47;;;22.53;64.64
63881;BME280;50046;46.672;11.152;2022-08-04T00:54:46;98258.03;;;22.53;63.87
63881;BME280;50046;46.672;11.152;2022-08-04T00:55:23;98258.81;;;22.54;63.59
63881;BME280;50046;46.672;11.152;2022-08-04T00:55:50;98254.47;;;22.53;63.34
63881;BME280;50046;46.672;11.152;2022-08-04T00:56:48;98257.22;;;22.53;63.73
63881;BME280;50046;46.672;11.152;2022-08-04T00:57:42;98257.22;;;22.53;64.40
63881;BME280;50046;46.672;11.152;2022-08-04T00:59:51;98250.25;;;22.55;64.60
63881;BME280;50046;46.672;11.152;2022-08-04T01:00:11;98255.41;;;22.57;64.22
63881;BME280;50046;46.672;11.152;2022-08-04T01:00:24;98262.06;;;22.56;63.97
63881;BME280;50046;46.672;11.152;2022-08-04T01:01:04;98250.25;;;22.55;63.66
63881;BME280;50046;46.672;11.152;2022-08-04T01:01:59;98254.94;;;22.55;64.11
63881;BME280;50046;46.672;11.152;2022-08-04T01:03:12;98259.41;;;22.60;64.23
63881;BME280;50046;46.672;11.152;2022-08-04T01:03:50;98257.03;;;22.58;64.11
63881;BME280;50046;46.672;11.152;2022-08-04T01:04:28;98255.41;;;22.57;64.20
63881;BME280;50046;46.672;11.152;2022-08-04T01:05:05;98252.84;;;22.52;63.94
63881;BME280;50046;46.672;11.152;2022-08-04T01:11:48;98253.13;;;22.59;63.68
63881;BME280;50046;46.672;11.152;2022-08-04T01:13:48;98251.63;;;22.62;61.39
63881;BME280;50046;46.672;11.152;2022-08-04T01:15:05;98256.22;;;22.57;61.35
63881;BME280;50046;46.672;11.152;2022-08-04T01:15:39;98250.25;;;22.55;61.00
63881;BME280;50046;46.672;11.152;2022-08-04T01:16:01;98252.63;;;22.57;61.01
63881;BME280;50046;46.672;11.152;2022-08-04T01:16:15;98256.22;;;22.57;61.16
63881;BME280;50046;46.672;11.152;2022-08-04T01:16:26;98254.28;;;22.58;61.02
63881;BME280;50046;46.672;11.152;2022-08-04T01:16:48;98257.03;;;22.58;61.29
63881;BME280;50046;46.672;11.152;2022-08-04T01:18:04;98257.34;;;22.56;60.88
63881;BME280;50046;46.672;11.152;2022-08-04T01:18:21;98248.28;;;22.56;60.66
63881;BME280;50046;46.672;11.152;2022-08-04T01:19:02;98254.28;;;22.58;60.97
63881;BME280;50046;46.672;11.152;2022-08-04T01:20:05;98251.53;;;22.58;60.43
63881;BME280;50046;46.672;11.152;2022-08-04T01:20:20;98257.81;;;22.58;60.17
63881;BME280;50046;46.672;11.152;2022-08-04T01:21:03;98252.31;;;22.58;60.54
63881;BME280;50046;46.672;11.152;2022-08-04T01:26:00;98255.34;;;22.66;59.92
63881;BME280;50046;46.672;11.152;2022-08-04T01:27:01;98250.94;;;22.65;60.16
63881;BME280;50046;46.672;11.152;2022-08-04T01:27:46;98250.31;;;22.68;59.91
63881;BME280;50046;46.672;11.152;2022-08-04T01:29:08;98252.38;;;22.71;59.92
63881;BME280;50046;46.672;11.152;2022-08-04T01:29:23;98257.53;;;22.72;60.05
63881;BME280;50046;46.672;11.152;2022-08-04T01:29:49;98253.66;;;22.73;59.86
63881;BME280;50046;46.672;11.152;2022-08-04T01:30:00;98253.66;;;22.73;60.09
63881;BME280;50046;46.672;11.152;2022-08-04T01:30:11;98252.50;;;22.74;59.78
63881;BME280;50046;46.672;11.152;2022-08-04T01:30:24;98256.03;;;22.75;59.88
63881;BME280;50046;46.672;11.152;2022-08-04T01:30:41;98248.94;;;22.74;60.04
63881;BME280;50046;46.672;11.152;2022-08-04T01:30:56;98249.75;;;22.74;60.12
63881;BME280;50046;46.672;11.152;2022-08-04T01:32:10;98252.16;;;22.76;60.29
63881;BME280;50046;46.672;11.152;2022-08-04T01:32:31;98252.97;;;22.76;60.53
63881;BME280;50046;46.672;11.152;2022-08-04T01:32:53;98255.72;;;22.76;60.48
63881;BME280;50046;46.672;11.152;2022-08-04T01:33:12;98258.47;;;22.76;60.42
63881;BME280;50046;46.672;11.152;2022-08-04T01:33:25;98257.69;;;22.76;60.30
63881;BME280;50046;46.672;11.152;2022-08-04T01:33:39;98251.69;;;22.74;60.94
63881;BME280;50046;46.672;11.152;2022-08-04T01:33:59;98253.19;;;22.71;61.33
63881;BME280;50046;46.672;11.152;2022-08-04T01:34:12;98256.59;;;22.68;61.19
63881;BME280;50046;46.672;11.152;2022-08-04T01:34:28;98255.81;;;22.68;61.56
63881;BME280;50046;46.672;11.152;2022-08-04T01:34:47;98260.16;;;22.69;61.21
63881;BME280;50046;46.672;11.152;2022-08-04T01:35:27;98255.81;;;22.68;61.35
63881;BME280;50046;46.672;11.152;2022-08-04T01:35:42;98254.19;;;22.67;61.86
63881;BME280;50046;46.672;11.152;2022-08-04T01:36:03;98255.34;;;22.66;61.87
63881;BME280;50046;46.672;11.152;2022-08-04T01:36:13;98256.59;;;22.68;61.62
63881;BME280;50046;46.672;11.152;2022-08-04T01:36:24;98257.28;;;22.65;61.98
63881;BME280;50046;46.672;11.152;2022-08-04T01:36:38;98258.28;;;22.61;62.40
63881;BME280;50046;46.672;11.152;2022-08-04T01:37:03;98254.13;;;22.54;62.90
63881;BME280;50046;46.672;11.152;2022-08-04T01:37:43;98257.56;;;22.51;63.19
63881;BME280;50046;46.672;11.152;2022-08-04T01:38:15;98253.19;;;22.50;63.13
63881;BME280;50046;46.672;11.152;2022-08-04T01:38:33;98260.66;;;22.50;63.35
63881;BME280;50046;46.672;11.152;2022-08-04T01:38:44;98257.91;;;22.50;63.35
63881;BME280;50046;46.672;11.152;2022-08-04T01:38:55;98257.91;;;22.50;63.29
63881;BME280;50046;46.672;11.152;2022-08-04T01:39:05;98261.09;;;22.52;62.95
63881;BME280;50046;46.672;11.152;2022-08-04T01:39:44;98261.25;;;22.55;63.66
63881;BME280;50046;46.672;11.152;2022-08-04T01:40:04;98256.06;;;22.54;63.66
63881;BME280;50046;46.672;11.152;2022-08-04T01:40:16;98263.06;;;22.51;63.75
63881;BME280;50046;46.672;11.152;2022-08-04T01:40:27;98256.75;;;22.51;63.82
63881;BME280;50046;46.672;11.152;2022-08-04T01:40:38;98261.44;;;22.50;63.97
63881;BME280;50046;46.672;11.152;2022-08-04T01:40:58;98255.00;;;22.46;64.51
63881;BME280;50046;46.672;11.152;2022-08-04T01:41:12;98260.84;;;22.45;64.63
63881;BME280;50046;46.672;11.152;2022-08-04T01:41:23;98259.44;;;22.39;64.63
63881;BME280;50046;46.672;11.152;2022-08-04T01:41:34;98260.09;;;22.35;64.83
63881;BME280;50046;46.672;11.152;2022-08-04T01:41:45;98258.03;;;22.32;64.94
63881;BME280;50046;46.672;11.152;2022-08-04T01:41:55;98263.53;;;22.32;64.94
63881;BME280;50046;46.672;11.152;2022-08-04T01:42:08;98261.59;;;22.33;65.11
63881;BME280;50046;46.672;11.152;2022-08-04T01:42:20;98261.25;;;22.34;65.14
63881;BME280;50046;46.672;11.152;2022-08-04T01:42:33;98259.78;;;22.37;64.97
63881;BME280;50046;46.672;11.152;2022-08-04T01:42:44;98256.69;;;22.39;64.64
63881;BME280;50046;46.672;11.152;2022-08-04T01:42:57;98261.06;;;22.40;64.98
63881;BME280;50046;46.672;11.152;2022-08-04T01:43:09;98262.66;;;22.41;64.68
63881;BME280;50046;46.672;11.152;2022-08-04T01:43:23;98255.56;;;22.40;64.72
63881;BME280;50046;46.672;11.152;2022-08-04T01:43:35;98257.84;;;22.38;65.04
63881;BME280;50046;46.672;11.152;2022-08-04T01:43:53;98261.25;;;22.34;64.87
63881;BME280;50046;46.672;11.152;2022-08-04T01:44:06;98258.34;;;22.31;64.80
63881;BME280;50046;46.672;11.152;2022-08-04T01:44:18;98264.22;;;22.29;64.86
63881;BME280;50046;46.672;11.152;2022-08-04T01:44:32;98258.22;;;22.27;64.89
63881;BME280;50046;46.672;11.152;2022-08-04T01:44:46;98260.19;;;22.27;65.08
63881;BME280;50046;46.672;11.152;2022-08-04T01:44:57;98254.81;;;22.30;64.96
63881;BME280;50046;46.672;11.152;2022-08-04T01:45:10;98254.47;;;22.32;64.77
63881;BME280;50046;46.672;11.152;2022-08-04T01:45:23;98257.34;;;22.35;64.72
63881;BME280;50046;46.672;11.152;2022-08-04T01:45:36;98258.84;;;22.33;64.56
63881;BME280;50046;46.672;11.152;2022-08-04T01:45:49;98257.69;;;22.34;64.50
63881;BME280;50046;46.672;11.152;2022-08-04T01:46:03;98259.63;;;22.33;64.77
63881;BME280;50046;46.672;11.152;2022-08-04T01:46:15;98261.91;;;22.31;64.59
63881;BME280;50046;46.672;11.152;2022-08-04T01:46:31;98256.75;;;22.30;64.60
63881;BME280;50046;46.672;11.152;2022-08-04T01:46:45;98261.47;;;22.29;64.50
63881;BME280;50046;46.672;11.152;2022-08-04T01:47:00;98264.66;;;22.31;64.63
63881;BME280;50046;46.672;11.152;2022-08-04T01:47:10;98264.34;;;22.33;64.62
63881;BME280;50046;46.672;11.152;2022-08-04T01:47:22;98259.16;;;22.31;64.42
63881;BME280;50046;46.672;11.152;2022-08-04T01:47:35;98259.16;;;22.31;64.48
63881;BME280;50046;46.672;11.152;2022-08-04T01:47:51;98259.31;;;22.35;64.50
63881;BME280;50046;46.672;11.152;2022-08-04T01:48:02;98258.50;;;22.34;64.46
63881;BME280;50046;46.672;11.152;2022-08-04T01:48:14;98256.41;;;22.31;64.78
63881;BME280;50046;46.672;11.152;2022-08-04T01:48:26;98257.88;;;22.29;64.73
63881;BME280;50046;46.672;11.152;2022-08-04T01:48:42;98255.13;;;22.29;64.66
63881;BME280;50046;46.672;11.152;2022-08-04T01:48:54;98257.56;;;22.30;64.85
63881;BME280;50046;46.672;11.152;2022-08-04T01:49:06;98255.97;;;22.29;65.07
63881;BME280;50046;46.672;11.152;2022-08-04T01:49:20;98257.06;;;22.28;64.82
63881;BME280;50046;46.672;11.152;2022-08-04T01:49:32;98260.31;;;22.30;64.96
63881;BME280;50046;46.672;11.152;2022-08-04T01:49:46;98252.84;;;22.31;64.69
63881;BME280;50046;46.672;11.152;2022-08-04T01:50:05;98251.25;;;22.30;64.84
63881;BME280;50046;46.672;11.152;2022-08-04T01:50:16;98258.22;;;22.27;64.82
63881;BME280;50046;46.672;11.152;2022-08-04T01:50:33;98259.34;;;22.26;65.01
63881;BME280;50046;46.672;11.152;2022-08-04T01:50:44;98261.31;;;22.26;65.03
63881;BME280;50046;46.672;11.152;2022-08-04T01:51:03;98256.81;;;22.21;65.18
63881;BME280;50046;46.672;11.152;2022-08-04T01:51:13;98257.63;;;22.22;64.86
63881;BME280;50046;46.672;11.152;2022-08-04T01:51:24;98255.69;;;22.22;65.25
63881;BME280;50046;46.672;11.152;2022-08-04T01:51:38;98258.06;;;22.24;64.78
63881;BME280;50046;46.672;11.152;2022-08-04T01:51:50;98255.00;;;22.25;64.82
63881;BME280;50046;46.672;11.152;2022-08-04T01:52:04;98259.34;;;22.26;64.75
63881;BME280;50046;46.672;11.152;2022-08-04T01:52:17;98256.16;;;22.24;64.45
63881;BME280;50046;46.672;11.152;2022-08-04T01:52:27;98256.16;;;22.24;64.61
63881;BME280;50046;46.672;11.152;2022-08-04T01:52:41;98258.44;;;22.22;64.52
63881;BME280;50046;46.672;11.152;2022-08-04T01:52:53;98255.19;;;22.20;64.78
63881;BME280;50046;46.672;11.152;2022-08-04T01:53:04;98261.84;;;22.19;65.01
63881;BME280;50046;46.672;11.152;2022-08-04T01:53:15;98259.41;;;22.18;65.11
63881;BME280;50046;46.672;11.152;2022-08-04T01:53:33;98258.91;;;22.15;65.19
63881;BME280;50046;46.672;11.152;2022-08-04T01:53:44;98255.69;;;22.13;64.99
63881;BME280;50046;46.672;11.152;2022-08-04T01:53:54;98252.50;;;22.11;65.43
63881;BME280;50046;46.672;11.152;2022-08-04T01:54:06;98255.25;;;22.11;65.30
63881;BME280;50046;46.672;11.152;2022-08-04T01:54:18;98254.09;;;22.12;65.37
63881;BME280;50046;46.672;11.152;2022-08-04T01:54:30;98250.06;;;22.10;65.63
63881;BME280;50046;46.672;11.152;2022-08-04T01:54:42;98257.84;;;22.08;65.62
63881;BME280;50046;46.672;11.152;2022-08-04T01:54:54;98262.06;;;22.05;65.52
63881;BME280;50046;46.672;11.152;2022-08-04T01:55:10;98258.50;;;22.05;65.80
63881;BME280;50046;46.672;11.152;2022-08-04T01:55:21;98258.03;;;22.03;66.17
63881;BME280;50046;46.672;11.152;2022-08-04T01:55:33;98254.59;;;22.06;66.32
63881;BME280;50046;46.672;11.152;2022-08-04T01:55:46;98262.53;;;22.07;66.14
63881;BME280;50046;46.672;11.152;2022-08-04T01:55:57;98260.59;;;22.08;66.25
63881;BME280;50046;46.672;11.152;2022-08-04T01:56:10;98269.31;;;22.10;66.32
63881;BME280;50046;46.672;11.152;2022-08-04T01:56:22;98250.06;;;22.10;66.23
63881;BME280;50046;46.672;11.152;2022-08-04T01:56:34;98259.09;;;22.10;65.90
63881;BME280;50046;46.672;11.152;2022-08-04T01:56:48;98256.34;;;22.10;65.97
63881;BME280;50046;46.672;11.152;2022-08-04T01:56:59;98263.81;;;22.10;65.96
63881;BME280;50046;46.672;11.152;2022-08-04T01:57:16;98258.63;;;22.08;65.90
63881;BME280;50046;46.672;11.152;2022-08-04T01:57:29;98265.97;;;22.04;66.09
63881;BME280;50046;46.672;11.152;2022-08-04T01:57:49;98257.34;;;22.06;66.37
63881;BME280;50046;46.672;11.152;2022-08-04T01:58:00;98261.25;;;22.05;66.22
63881;BME280;50046;46.672;11.152;2022-08-04T01:58:11;98261.72;;;22.07;66.27
63881;BME280;50046;46.672;11.152;2022-08-04T01:58:23;98263.69;;;22.06;65.99
63881;BME280;50046;46.672;11.152;2022-08-04T01:58:35;98264.81;;;22.05;65.95
63881;BME280;50046;46.672;11.152;2022-08-04T01:58:46;98259.66;;;22.04;66.15
63881;BME280;50046;46.672;11.152;2022-08-04T01:58:58;98268.34;;;22.06;66.01
63881;BME280;50046;46.672;11.152;2022-08-04T01:59:11;98256.56;;;22.05;65.95
63881;BME280;50046;46.672;11.152;2022-08-04T01:59:24;98263.69;;;22.06;65.97
63881;BME280;50046;46.672;11.152;2022-08-04T01:59:39;98260.47;;;22.04;65.87
63881;BME280;50046;46.672;11.152;2022-08-04T01:59:53;98262.41;;;22.04;66.01